createdAt,value
2022-08-03T00:00:34.086Z,65.79
2022-08-03T00:03:07.400Z,67.71
2022-08-03T00:05:34.639Z,66.52
2022-08-03T00:08:01.694Z,66.05
2022-08-03T00:10:30.219Z,66.46
2022-08-03T00:12:57.079Z,66.55
2022-08-03T00:15:23.904Z,67.05
2022-08-03T00:17:54.619Z,66.61
2022-08-03T00:20:22.250Z,66.39
2022-08-03T00:22:49.927Z,66.07
2022-08-03T00:25:17.505Z,66.35
2022-08-03T00:27:44.515Z,66.53
2022-08-03T00:30:11.839Z,67.02
2022-08-03T00:32:44.347Z,68.05
2022-08-03T00:35:34.408Z,65.61
2022-08-03T00:38:00.498Z,66.10
2022-08-03T00:40:28.224Z,66.92
2022-08-03T00:43:01.233Z,66.67
2022-08-03T00:45:31.270Z,67.75
2022-08-03T00:47:59.224Z,67.87
2022-08-03T00:50:28.916Z,67.99
2022-08-03T00:52:59.294Z,67.22
2022-08-03T00:55:26.821Z,67.75
2022-08-03T00:57:54.194Z,68.03
2022-08-03T01:00:23.624Z,68.57
2022-08-03T01:02:51.648Z,68.12
2022-08-03T01:05:19.429Z,68.29
2022-08-03T01:08:07.830Z,68.20
2022-08-03T01:10:53.683Z,69.51
2022-08-03T01:14:01.226Z,70.52
2022-08-03T01:16:35.978Z,68.08
2022-08-03T01:19:29.376Z,69.92
2022-08-03T01:21:58.710Z,70.10
2022-08-03T01:24:45.332Z,70.39
2022-08-03T01:27:35.490Z,70.91
2022-08-03T01:30:08.491Z,70.12
2022-08-03T01:33:02.785Z,70.55
2022-08-03T01:35:43.036Z,72.46
2022-08-03T01:38:18.284Z,71.72
2022-08-03T01:40:47.020Z,72.10
2022-08-03T01:44:27.759Z,72.41
2022-08-03T01:46:07.547Z,71.07
2022-08-03T01:48:38.112Z,71.31
2022-08-03T01:51:07.049Z,71.27
2022-08-03T01:53:35.064Z,71.23
2022-08-03T01:56:04.010Z,70.76
2022-08-03T01:58:32.356Z,70.78
2022-08-03T02:01:01.828Z,70.07
2022-08-03T02:03:31.779Z,71.14
2022-08-03T02:06:40.954Z,72.36
2022-08-03T02:08:48.858Z,72.87
2022-08-03T02:11:16.228Z,72.37
2022-08-03T02:13:45.809Z,72.30
2022-08-03T02:16:14.341Z,72.86
2022-08-03T02:18:42.521Z,72.50
2022-08-03T02:21:11.936Z,73.72
2022-08-03T02:23:59.045Z,73.31
2022-08-03T02:26:29.161Z,74.47
2022-08-03T02:28:58.773Z,73.75
2022-08-03T02:31:31.086Z,74.33
2022-08-03T02:34:03.652Z,73.77
2022-08-03T02:36:34.947Z,73.56
2022-08-03T02:39:03.735Z,73.78
2022-08-03T02:41:42.180Z,75.22
2022-08-03T02:44:11.299Z,74.01
2022-08-03T02:46:42.970Z,74.57
2022-08-03T02:49:49.500Z,75.95
2022-08-03T02:51:59.659Z,75.36
2022-08-03T02:54:27.896Z,76.31
2022-08-03T02:56:58.955Z,76.93
2022-08-03T02:59:28.326Z,75.46
2022-08-03T19:30:39.036Z,50.13
2022-08-03T19:33:09.303Z,47.92
2022-08-03T19:35:51.738Z,48.67
2022-08-03T19:38:29.093Z,49.02
2022-08-03T19:41:00.792Z,46.47
2022-08-03T19:43:52.894Z,47.57
2022-08-03T19:46:30.468Z,47.99
2022-08-03T19:49:15.157Z,48.33
2022-08-03T19:52:01.827Z,48.86
2022-08-03T19:54:52.996Z,48.73
2022-08-03T19:57:24.146Z,48.44
2022-08-03T19:59:53.217Z,50.98
2022-08-03T20:02:26.579Z,50.01
2022-08-03T20:04:56.986Z,51.78
2022-08-03T20:07:25.488Z,50.96
2022-08-03T20:09:54.505Z,50.30
2022-08-03T20:12:27.713Z,50.78
2022-08-03T20:14:57.562Z,50.36
2022-08-03T20:17:54.585Z,50.88
2022-08-03T20:20:12.590Z,50.68
2022-08-03T20:22:46.215Z,50.18
2022-08-03T20:25:20.915Z,50.58
2022-08-03T20:28:07.093Z,51.01
2022-08-03T20:30:43.608Z,51.18
2022-08-03T20:33:11.082Z,51.24
2022-08-03T20:35:38.050Z,50.75
2022-08-03T20:38:09.354Z,51.18
2022-08-03T20:40:36.561Z,51.49
2022-08-03T20:43:04.877Z,52.67
2022-08-03T20:46:00.360Z,51.19
2022-08-03T20:48:22.209Z,50.77
2022-08-03T20:50:49.349Z,50.70
2022-08-03T20:53:31.162Z,52.02
2022-08-03T20:56:04.713Z,52.64
2022-08-03T20:58:32.665Z,52.74
2022-08-03T21:01:01.037Z,54.88
2022-08-03T21:03:31.865Z,54.17
2022-08-03T21:06:12.055Z,57.02
2022-08-03T21:08:47.009Z,54.45
2022-08-03T21:11:20.178Z,55.32
2022-08-03T21:13:58.793Z,55.68
2022-08-03T21:16:29.004Z,54.26
2022-08-03T21:18:59.669Z,53.28
2022-08-03T21:21:30.692Z,51.58
2022-08-03T21:23:59.658Z,53.86
2022-08-03T21:26:27.508Z,53.89
2022-08-03T21:28:56.352Z,53.95
2022-08-03T21:31:26.276Z,54.80
2022-08-03T21:33:56.469Z,54.75
2022-08-03T21:36:25.777Z,56.14
2022-08-03T21:38:55.774Z,55.50
2022-08-03T21:41:24.001Z,56.47
2022-08-03T21:43:50.759Z,57.17
2022-08-03T21:46:19.797Z,56.54
2022-08-03T21:48:54.459Z,56.23
2022-08-03T21:51:25.523Z,56.69
2022-08-03T21:54:03.458Z,56.82
2022-08-03T21:56:41.735Z,57.92
2022-08-03T21:59:15.847Z,56.65
2022-08-03T22:01:49.062Z,59.99
2022-08-03T22:04:50.626Z,59.90
2022-08-03T22:07:08.467Z,60.39
2022-08-03T22:09:36.401Z,61.12
2022-08-03T22:12:03.966Z,60.26
2022-08-03T22:14:37.387Z,61.97
2022-08-03T22:17:06.339Z,61.93
2022-08-03T22:19:34.891Z,61.90
2022-08-03T22:22:06.033Z,60.57
2022-08-03T22:24:36.068Z,62.68
2022-08-03T22:27:22.715Z,62.78
2022-08-03T22:29:51.011Z,63.45
2022-08-03T22:32:18.015Z,62.66
2022-08-03T22:34:47.388Z,61.78
2022-08-03T22:37:16.600Z,60.55
2022-08-03T22:39:45.252Z,61.88
2022-08-03T22:42:12.647Z,62.27
2022-08-03T22:44:40.334Z,62.36
2022-08-03T22:47:09.588Z,61.82
2022-08-03T22:49:38.052Z,58.99
2022-08-03T22:52:07.595Z,61.21
2022-08-03T22:54:35.565Z,61.37
2022-08-03T22:57:03.349Z,63.38
2022-08-03T22:59:39.853Z,61.93
2022-08-03T23:02:20.650Z,63.26
2022-08-03T23:04:57.697Z,61.90
2022-08-03T23:07:32.286Z,62.23
2022-08-03T23:10:01.703Z,62.99
2022-08-03T23:12:31.604Z,61.38
2022-08-03T23:15:02.423Z,61.43
2022-08-03T23:17:34.213Z,61.72
2022-08-03T23:20:26.367Z,61.73
2022-08-03T23:22:54.622Z,61.30
2022-08-03T23:25:22.089Z,60.55
2022-08-03T23:28:05.546Z,63.13
2022-08-03T23:30:37.226Z,59.80
2022-08-03T23:33:04.380Z,62.73
2022-08-03T23:36:29.421Z,60.93
2022-08-03T23:38:37.183Z,59.87
2022-08-03T23:41:04.891Z,60.32
2022-08-03T23:43:51.602Z,59.87
2022-08-03T23:46:22.717Z,59.61
2022-08-03T23:48:51.144Z,61.09
2022-08-03T23:51:43.132Z,59.79
2022-08-03T23:54:23.699Z,59.77
2022-08-03T23:57:20.585Z,58.63
